Port Graham, Alaska

2:45 PM AKDT on September 26, 2016 (GMT -0800)
Seldovia | | Change Station

Elev 30 ft 59.44 °N, 151.70 °W | Updated 52 minutes ago

Clear
Clear
50 °F
Feels Like 50 °F
N
5
Wind Variable Wind from NNE

Today
High -- | Low -- °F
--% Chance of Precip.
Yesterday
High -- | Low -- °F
Precip. -- in
Pressure 29.89 in
Visibility 10.0 miles
Clouds Clear
Dew Point 41 °F
Humidity 71%
Rainfall 0.02 in
Snow Depth Not available.
8:09 AM 8:00 PM
Waning Crescent, 16% visible
METAR PASO 262153Z AUTO 02004KT 10SM CLR 10/05 A2989 RMK AO2 SLP121 T01000050 TSNO
Pressure 29.89 in
Visibility 10.0 miles
Clouds Clear
Dew Point 41 °F
Humidity 71%
Rainfall 0.02 in
Snow Depth Not available.
8:09 AM 8:00 PM
Waning Crescent, 16% visible
METAR PASO 262153Z AUTO 02004KT 10SM CLR 10/05 A2989 RMK AO2 SLP121 T01000050 TSNO

10-Day Weather Forecast

Almanac

Astronomy

Sep. 26, 2016 Rise Set
Actual Time
Civil Twilight
Nautical Twilight
Astronomical Twilight
Moon
Length of Visible Light
Length of Day
Tomorrow will be .
, % of the Moon is Illuminated

Today's Extremes

State Highs State Lows

Community

WunderPhotos

Upload Photos

1,941,981 photos uploaded!

WunderBlog® & News

Nearby

Air Quality

  Air Quality AQ Index Pollutant
Not available.

Snow Depth

Station Depth Elevation

Earthquake Activity

City Distance Mag. Time & Date
Minimum magnitude displayed is 2.5.

Coastal Water Temperatures

Place Temperature

Stations

Nearby Weather Stations

Station Location Temp. Windchill Dew Point Humidity Wind Precip. Elev Updated Type
                   

Watches & Warnings

There are currently no watches in effect.